Tampico, Indiana
Current Conditions -  °F | °C
As of 8:33 PM on Friday 19 Dec 2014 (Local Time) from KIMS Reporting Station
Overcast Overcast  
Wind Chill: 25°   Ceiling: 2200
Heat Index: 30°   Visibility: 10mi
Dew Point: 21°   Wind: 5mph
Humidity: 69%   Direction: 60°ENE
Pressure: 30.3"   Gusts: NA
Location:  38.8084°N, 85.8627°W
Report Text: KIMS 200133Z AUTO 06004KT 10SM OVC022 M01/M06 A3030 RMK AO1
Loading
Personal Weather Stations






























Interactive Weather Map New forecast layout! Learn more

10-Day Weather Forecast

Advertisements
Track Severe Weather on mobile